createdAt,value
2019-03-23T00:00:45.476Z,20.53
2019-03-23T00:03:16.057Z,21.53
2019-03-23T00:05:45.921Z,21.73
2019-03-23T00:08:16.497Z,20.57
2019-03-23T00:10:46.777Z,18.10
2019-03-23T00:13:17.431Z,20.30
2019-03-23T00:15:47.733Z,19.40
2019-03-23T00:18:18.281Z,19.20
2019-03-23T00:20:49.025Z,19.97
2019-03-23T00:23:19.324Z,19.67
2019-03-23T00:25:49.634Z,20.40
2019-03-23T00:28:19.978Z,19.93
2019-03-23T00:30:50.282Z,19.43
2019-03-23T00:33:20.441Z,20.97
2019-03-23T00:35:51.059Z,21.20
2019-03-23T00:38:21.409Z,21.27
2019-03-23T00:40:52.270Z,22.63
2019-03-23T00:43:22.582Z,23.80
2019-03-23T00:45:53.053Z,22.67
2019-03-23T00:48:23.665Z,21.03
2019-03-23T00:50:54.248Z,23.13
2019-03-23T00:53:24.771Z,22.80
2019-03-23T00:55:54.647Z,22.80
2019-03-23T00:58:24.932Z,22.43
2019-03-23T01:00:54.980Z,21.93
2019-03-23T01:03:25.433Z,20.70
2019-03-23T01:05:55.833Z,23.17
2019-03-23T01:08:26.785Z,19.47
2019-03-23T01:10:56.676Z,20.60
2019-03-23T01:13:27.329Z,21.60
2019-03-23T01:15:57.573Z,21.60
2019-03-23T01:18:27.492Z,21.80
2019-03-23T01:20:58.095Z,22.37
2019-03-23T01:23:28.837Z,22.60
2019-03-23T01:25:59.933Z,22.20
2019-03-23T01:28:30.581Z,21.00
2019-03-23T01:31:01.153Z,20.80
2019-03-23T01:33:31.421Z,20.60
2019-03-23T01:36:02.458Z,18.50
2019-03-23T01:38:33.011Z,20.47
2019-03-23T01:41:03.293Z,21.30
2019-03-23T01:43:34.047Z,18.23
2019-03-23T01:46:04.070Z,20.87
2019-03-23T01:48:35.153Z,20.90
2019-03-23T01:51:05.691Z,22.83
2019-03-23T01:53:36.925Z,23.77
2019-03-23T01:56:07.121Z,20.53
2019-03-23T01:58:37.302Z,22.37
2019-03-23T02:01:07.544Z,20.00
2019-03-23T02:03:38.125Z,21.63
2019-03-23T02:06:08.961Z,22.10
2019-03-23T02:08:39.166Z,21.60
2019-03-23T02:11:09.517Z,20.03
2019-03-23T02:13:40.051Z,19.30
2019-03-23T02:16:10.574Z,20.43
2019-03-23T02:18:41.575Z,22.00
2019-03-23T02:21:12.564Z,21.33
2019-03-23T02:23:42.776Z,22.70
2019-03-23T02:26:12.691Z,22.13
2019-03-23T02:28:42.980Z,20.33
2019-03-23T02:31:13.652Z,22.87
2019-03-23T02:33:44.286Z,20.30
2019-03-23T02:36:14.977Z,21.73
2019-03-23T02:38:45.862Z,21.00
2019-03-23T02:41:16.923Z,19.73
2019-03-23T02:43:47.751Z,21.17
2019-03-23T02:46:17.642Z,22.67
2019-03-23T02:48:48.913Z,20.87
2019-03-23T02:51:19.186Z,19.57
2019-03-23T02:53:49.991Z,20.23
2019-03-23T02:56:20.503Z,20.30
2019-03-23T02:58:51.573Z,21.20
2019-03-23T03:01:22.141Z,19.63
2019-03-23T03:03:52.877Z,22.63
2019-03-23T03:06:23.484Z,22.30
2019-03-23T03:08:54.510Z,24.83
2019-03-23T03:11:24.562Z,22.80
2019-03-23T03:13:54.793Z,25.17
2019-03-23T03:16:25.128Z,25.10
2019-03-23T03:18:55.761Z,23.73
2019-03-23T03:21:25.973Z,24.70
2019-03-23T03:23:56.544Z,24.07
2019-03-23T03:26:27.205Z,23.57
2019-03-23T03:28:57.907Z,22.60
2019-03-23T03:31:28.504Z,20.83
2019-03-23T03:33:59.404Z,19.00
2019-03-23T03:36:30.365Z,17.83
2019-03-23T03:39:00.603Z,20.17
2019-03-23T03:41:30.863Z,19.40
2019-03-23T03:44:01.765Z,17.43
2019-03-23T03:46:32.014Z,18.00
2019-03-23T03:49:12.353Z,17.40
2019-03-23T03:51:34.608Z,16.37
2019-03-23T03:54:05.020Z,15.53
2019-03-23T03:56:35.778Z,16.17
2019-03-23T03:59:05.847Z,16.37
2019-03-23T04:01:36.271Z,17.57
2019-03-23T04:04:06.410Z,18.20
2019-03-23T04:06:37.235Z,18.63
2019-03-23T04:09:08.394Z,21.10
2019-03-23T04:11:38.614Z,22.17
2019-03-23T04:14:09.181Z,23.43
2019-03-23T04:16:39.079Z,21.67
2019-03-23T04:19:09.358Z,27.90
2019-03-23T04:21:40.381Z,22.87
2019-03-23T04:24:10.652Z,26.37
2019-03-23T04:26:41.606Z,27.17
2019-03-23T04:29:12.038Z,24.60
2019-03-23T04:31:42.339Z,25.77
2019-03-23T04:34:12.962Z,22.87
2019-03-23T04:36:42.863Z,21.63
2019-03-23T04:39:13.133Z,20.53
2019-03-23T04:41:43.412Z,19.23
2019-03-23T04:44:14.081Z,18.90
2019-03-23T04:46:44.265Z,17.57
2019-03-23T04:49:15.086Z,16.43
2019-03-23T04:51:45.316Z,17.10
2019-03-23T04:54:15.562Z,17.70
2019-03-23T04:56:45.845Z,16.80
2019-03-23T04:59:16.954Z,18.47
2019-03-23T05:01:47.301Z,16.20
2019-03-23T05:04:17.934Z,17.03
2019-03-23T05:06:48.953Z,16.03
2019-03-23T05:09:19.275Z,20.47
2019-03-23T05:11:50.154Z,22.07
2019-03-23T05:14:20.601Z,23.57
2019-03-23T05:16:50.889Z,24.23
2019-03-23T05:19:22.172Z,31.73
2019-03-23T05:21:52.811Z,28.60
2019-03-23T05:24:23.485Z,30.00
2019-03-23T05:26:54.425Z,37.90
2019-03-23T05:29:25.090Z,30.80
2019-03-23T05:31:55.313Z,33.00
2019-03-23T05:34:26.600Z,34.87
2019-03-23T05:36:56.869Z,27.80
2019-03-23T05:39:27.485Z,27.10
2019-03-23T05:41:57.858Z,31.50
2019-03-23T05:44:28.813Z,34.37
2019-03-23T05:46:59.349Z,30.13
2019-03-23T05:49:29.285Z,28.53
2019-03-23T05:52:01.545Z,30.80
2019-03-23T05:54:31.985Z,31.53
2019-03-23T05:57:02.634Z,31.93
2019-03-23T05:59:33.323Z,33.60
2019-03-23T06:02:03.537Z,35.40
2019-03-23T06:04:33.766Z,34.70
2019-03-23T06:07:04.345Z,34.13
2019-03-23T06:09:34.297Z,37.67
2019-03-23T06:12:04.897Z,38.67
2019-03-23T06:14:35.181Z,34.83
2019-03-23T06:17:06.119Z,38.13
2019-03-23T06:19:36.341Z,38.60
2019-03-23T06:22:06.644Z,39.37
2019-03-23T06:24:36.957Z,39.43
2019-03-23T06:27:07.708Z,37.07
2019-03-23T06:29:37.898Z,37.60
2019-03-23T06:32:08.082Z,37.63
2019-03-23T06:34:39.216Z,39.03
2019-03-23T06:37:10.439Z,38.20
2019-03-23T06:39:40.581Z,41.43
2019-03-23T06:42:10.482Z,39.37
2019-03-23T06:44:41.339Z,41.37
2019-03-23T06:47:12.294Z,37.33
2019-03-23T06:49:43.132Z,36.80
2019-03-23T06:52:13.805Z,37.67
2019-03-23T06:54:44.026Z,37.00
2019-03-23T06:57:14.662Z,34.47
2019-03-23T06:59:45.393Z,33.30
2019-03-23T07:02:15.727Z,30.87
2019-03-23T07:04:46.051Z,23.73
2019-03-23T07:07:16.376Z,24.80
2019-03-23T07:09:46.580Z,20.27
2019-03-23T07:12:17.370Z,15.63
2019-03-23T07:14:47.676Z,13.73
2019-03-23T07:17:18.541Z,14.40
2019-03-23T07:19:48.843Z,11.20
2019-03-23T07:22:19.474Z,12.43
2019-03-23T07:24:49.706Z,12.80
2019-03-23T07:27:20.329Z,13.80
2019-03-23T07:29:50.511Z,10.23
2019-03-23T07:32:21.818Z,14.03
2019-03-23T07:34:52.890Z,13.43
2019-03-23T07:37:23.310Z,13.50
2019-03-23T07:39:54.129Z,13.87
2019-03-23T07:42:24.964Z,12.00
2019-03-23T07:44:54.899Z,10.97
2019-03-23T07:47:25.074Z,11.53
2019-03-23T07:49:55.676Z,8.70
2019-03-23T07:52:26.233Z,10.07
2019-03-23T07:54:58.639Z,11.70
2019-03-23T07:57:29.221Z,8.07
2019-03-23T07:59:59.365Z,10.00
2019-03-23T08:02:29.610Z,9.10
2019-03-23T08:04:59.982Z,9.20
2019-03-23T08:07:30.259Z,9.43
2019-03-23T08:10:00.555Z,9.33
2019-03-23T08:12:31.112Z,8.97
2019-03-23T08:15:01.863Z,8.70
2019-03-23T08:17:32.906Z,7.27
2019-03-23T08:20:02.854Z,8.90
2019-03-23T08:22:33.268Z,8.77
2019-03-23T08:25:03.490Z,8.50
2019-03-23T08:27:33.709Z,7.23
2019-03-23T08:30:04.101Z,7.47
2019-03-23T08:32:34.753Z,7.40
2019-03-23T08:35:05.400Z,6.80
2019-03-23T08:37:35.950Z,6.27
2019-03-23T08:40:06.909Z,6.77
2019-03-23T08:42:37.773Z,5.90
2019-03-23T08:45:08.202Z,6.33
2019-03-23T08:47:38.882Z,7.60
2019-03-23T08:50:09.233Z,6.30
2019-03-23T08:52:39.793Z,6.93
2019-03-23T08:55:10.416Z,6.43
2019-03-23T08:57:41.550Z,7.90
2019-03-23T09:00:11.798Z,7.50
2019-03-23T09:02:42.090Z,6.30
2019-03-23T09:05:12.751Z,7.10
2019-03-23T09:07:43.377Z,7.30
2019-03-23T09:10:13.553Z,7.10
2019-03-23T09:12:43.456Z,6.73
2019-03-23T09:15:13.883Z,7.77
2019-03-23T09:17:44.190Z,6.20
2019-03-23T09:20:15.141Z,7.10
2019-03-23T09:22:46.421Z,6.63
2019-03-23T09:25:16.597Z,6.10
2019-03-23T09:27:46.968Z,6.80
2019-03-23T09:30:18.658Z,6.70
2019-03-23T09:32:49.327Z,7.83
2019-03-23T09:35:19.241Z,6.93
2019-03-23T09:37:50.409Z,7.00
2019-03-23T09:40:21.029Z,7.60
2019-03-23T09:42:51.419Z,7.37
2019-03-23T09:45:21.670Z,7.10
2019-03-23T09:47:52.261Z,7.70
2019-03-23T09:50:23.250Z,8.07
2019-03-23T09:52:53.835Z,7.03
2019-03-23T09:55:24.522Z,7.23
2019-03-23T09:57:55.453Z,8.00
2019-03-23T10:00:25.813Z,7.23
2019-03-23T10:02:56.419Z,6.57
2019-03-23T10:05:27.104Z,6.60
2019-03-23T10:07:57.473Z,6.07
2019-03-23T10:10:27.764Z,4.57
2019-03-23T10:12:58.092Z,5.10
2019-03-23T10:15:28.659Z,5.43
2019-03-23T10:17:58.913Z,4.47
2019-03-23T10:20:29.181Z,5.57
2019-03-23T10:22:59.786Z,5.90
2019-03-23T10:25:30.323Z,5.53
2019-03-23T10:28:00.975Z,6.10
2019-03-23T10:30:31.276Z,6.57
2019-03-23T10:33:01.501Z,6.30
2019-03-23T10:35:32.086Z,5.00
2019-03-23T10:38:03.310Z,6.83
2019-03-23T10:40:33.945Z,6.10
2019-03-23T10:43:03.814Z,6.10
2019-03-23T10:45:43.808Z,6.10
2019-03-23T10:48:07.203Z,7.47
2019-03-23T10:50:37.834Z,5.87
2019-03-23T10:53:07.756Z,6.47
2019-03-23T10:55:38.621Z,7.17
2019-03-23T10:58:08.853Z,6.37
2019-03-23T11:00:39.018Z,7.13
2019-03-23T11:03:09.613Z,7.30
2019-03-23T11:05:39.884Z,6.50
2019-03-23T11:08:09.750Z,7.00
2019-03-23T11:10:41.953Z,8.10
2019-03-23T11:13:11.597Z,6.70
2019-03-23T11:15:42.102Z,7.30
2019-03-23T11:18:13.331Z,7.30
2019-03-23T11:20:44.429Z,7.63
2019-03-23T11:23:14.341Z,6.93
2019-03-23T11:25:44.945Z,7.77
2019-03-23T11:28:15.671Z,7.47
2019-03-23T11:30:45.714Z,6.90
2019-03-23T11:33:16.054Z,7.10
2019-03-23T11:35:57.238Z,6.80
2019-03-23T11:38:19.650Z,8.00
2019-03-23T11:40:54.983Z,8.03
2019-03-23T11:43:21.733Z,7.83
2019-03-23T11:45:52.065Z,7.40
2019-03-23T11:48:22.897Z,8.00
2019-03-23T11:50:52.841Z,7.40
2019-03-23T11:53:23.088Z,8.03
2019-03-23T11:55:53.680Z,6.60
2019-03-23T11:58:23.594Z,7.40
2019-03-23T12:00:53.801Z,6.87
2019-03-23T12:03:24.140Z,8.07
2019-03-23T12:05:55.417Z,8.37
2019-03-23T12:08:26.734Z,8.00
2019-03-23T12:11:02.945Z,9.27
2019-03-23T12:13:29.918Z,9.53
2019-03-23T12:16:00.258Z,9.40
2019-03-23T12:18:30.948Z,9.77
2019-03-23T12:21:01.973Z,9.50
2019-03-23T12:23:32.781Z,8.60
2019-03-23T12:26:03.150Z,9.53
2019-03-23T12:28:34.008Z,9.37
2019-03-23T12:31:04.673Z,10.40
2019-03-23T12:33:35.205Z,10.50
2019-03-23T12:36:05.146Z,9.97
2019-03-23T12:38:35.619Z,10.63
2019-03-23T12:41:14.229Z,10.00
2019-03-23T12:43:38.305Z,9.80
2019-03-23T12:46:08.685Z,10.70
2019-03-23T12:48:38.629Z,10.60
2019-03-23T12:51:09.122Z,9.20
2019-03-23T12:53:39.407Z,8.73
2019-03-23T12:56:10.009Z,9.50
2019-03-23T12:58:40.511Z,10.97
2019-03-23T13:01:11.553Z,10.07
2019-03-23T13:03:41.757Z,9.43
2019-03-23T13:06:12.627Z,10.87
2019-03-23T13:08:43.981Z,10.20
2019-03-23T13:11:23.051Z,9.60
2019-03-23T13:13:46.613Z,9.87
2019-03-23T13:16:16.877Z,10.97
2019-03-23T13:18:47.585Z,9.90
2019-03-23T13:21:17.842Z,13.37
2019-03-23T13:23:48.529Z,10.47
2019-03-23T13:26:18.417Z,11.23
2019-03-23T13:28:48.958Z,10.60
2019-03-23T13:31:19.697Z,11.23
2019-03-23T13:33:50.157Z,11.00
2019-03-23T13:36:20.364Z,10.77
2019-03-23T13:38:50.913Z,10.43
2019-03-23T13:41:21.224Z,11.10
2019-03-23T13:43:51.493Z,10.50
2019-03-23T13:46:21.693Z,10.00
2019-03-23T13:48:52.309Z,9.87
2019-03-23T13:51:22.640Z,10.83
2019-03-23T13:53:53.333Z,10.00
2019-03-23T13:56:23.709Z,10.53
2019-03-23T13:58:54.208Z,11.20
2019-03-23T14:01:24.625Z,10.23
2019-03-23T14:03:54.481Z,10.40
2019-03-23T14:06:25.033Z,10.10
2019-03-23T14:08:55.631Z,11.20
2019-03-23T14:11:25.883Z,11.07
2019-03-23T14:13:56.517Z,11.07
2019-03-23T14:16:27.565Z,11.57
2019-03-23T14:18:58.157Z,9.43
2019-03-23T14:21:29.408Z,9.87
2019-03-23T14:23:59.749Z,10.30
2019-03-23T14:26:30.313Z,12.20
2019-03-23T14:29:00.944Z,11.73
2019-03-23T14:31:31.478Z,10.57
2019-03-23T14:34:02.110Z,11.33
2019-03-23T14:36:32.468Z,10.73
2019-03-23T14:39:04.995Z,11.87
2019-03-23T14:41:35.662Z,10.17
2019-03-23T14:44:06.292Z,10.77
2019-03-23T14:46:36.577Z,11.40
2019-03-23T14:49:06.867Z,11.27
2019-03-23T14:51:37.532Z,12.07
2019-03-23T14:54:07.775Z,11.23
2019-03-23T14:56:38.162Z,11.10
2019-03-23T14:59:08.731Z,10.73
2019-03-23T15:01:39.267Z,10.70
2019-03-23T15:04:09.848Z,11.70
2019-03-23T15:06:40.418Z,10.07
2019-03-23T15:09:11.367Z,10.63
2019-03-23T15:11:41.585Z,10.80
2019-03-23T15:14:12.131Z,9.60
2019-03-23T15:16:42.045Z,10.47
2019-03-23T15:19:11.943Z,10.37
2019-03-23T15:21:42.596Z,10.60
2019-03-23T15:24:12.972Z,10.27
2019-03-23T15:26:43.859Z,9.70
2019-03-23T15:29:13.774Z,9.90
2019-03-23T15:31:44.439Z,10.47
2019-03-23T15:34:15.432Z,11.03
2019-03-23T15:36:45.654Z,10.07
2019-03-23T15:39:15.844Z,10.50
2019-03-23T15:41:46.783Z,8.67
2019-03-23T15:44:16.689Z,10.10
2019-03-23T15:46:47.685Z,9.90
2019-03-23T15:49:19.065Z,10.17
2019-03-23T15:51:49.448Z,9.00
2019-03-23T15:54:20.210Z,9.23
2019-03-23T15:56:50.821Z,8.33
2019-03-23T15:59:21.540Z,7.90
2019-03-23T16:01:52.069Z,7.80
2019-03-23T16:04:22.634Z,8.00
2019-03-23T16:06:53.385Z,8.07
2019-03-23T16:09:24.002Z,8.03
2019-03-23T16:11:53.981Z,8.47
2019-03-23T16:14:23.928Z,7.97
2019-03-23T16:16:54.876Z,9.47
2019-03-23T16:19:25.588Z,8.20
2019-03-23T16:21:55.878Z,7.83
2019-03-23T16:24:26.218Z,8.00
2019-03-23T16:26:57.233Z,9.03
2019-03-23T16:29:27.794Z,9.73
2019-03-23T16:31:58.221Z,9.13
2019-03-23T16:34:28.554Z,10.17
2019-03-23T16:36:58.506Z,9.73
2019-03-23T16:39:29.530Z,10.80
2019-03-23T16:42:00.534Z,10.67
2019-03-23T16:44:31.241Z,10.17
2019-03-23T16:47:01.132Z,9.73
2019-03-23T16:49:31.794Z,9.50
2019-03-23T16:52:02.370Z,10.23
2019-03-23T16:54:32.911Z,11.17
2019-03-23T16:57:03.927Z,11.10
2019-03-23T16:59:34.387Z,12.10
2019-03-23T17:02:04.627Z,11.50
2019-03-23T17:04:34.947Z,12.30
2019-03-23T17:07:05.658Z,11.60
2019-03-23T17:09:35.797Z,12.53
2019-03-23T17:12:06.804Z,12.67
2019-03-23T17:14:37.111Z,12.20
2019-03-23T17:17:07.058Z,11.80
2019-03-23T17:19:37.474Z,13.63
2019-03-23T17:22:08.133Z,13.80
2019-03-23T17:24:38.061Z,14.30
2019-03-23T17:27:08.534Z,13.80
2019-03-23T17:29:39.253Z,15.13
2019-03-23T17:32:09.786Z,14.87
2019-03-23T17:34:40.089Z,15.87
2019-03-23T17:37:11.013Z,15.30
2019-03-23T17:39:41.996Z,16.87
2019-03-23T17:42:12.291Z,16.93
2019-03-23T17:44:42.922Z,18.13
2019-03-23T17:47:12.882Z,18.43
2019-03-23T17:49:43.069Z,19.67
2019-03-23T17:52:13.500Z,18.00
2019-03-23T17:54:44.113Z,19.67
2019-03-23T17:57:14.650Z,19.27
2019-03-23T17:59:44.932Z,20.30
2019-03-23T18:02:15.260Z,21.03
2019-03-23T18:04:45.108Z,21.70
2019-03-23T18:07:15.333Z,21.27
2019-03-23T18:09:45.533Z,21.47
2019-03-23T18:12:15.673Z,22.03
2019-03-23T18:14:46.718Z,22.60
2019-03-23T18:17:16.883Z,23.47
2019-03-23T18:19:47.567Z,22.07
2019-03-23T18:22:18.569Z,23.70
2019-03-23T18:24:49.575Z,24.17
2019-03-23T18:27:19.966Z,25.30
2019-03-23T18:29:50.241Z,25.43
2019-03-23T18:32:21.575Z,24.77
2019-03-23T18:34:51.816Z,24.40
2019-03-23T18:37:22.097Z,22.70
2019-03-23T18:39:52.753Z,24.90
2019-03-23T18:42:22.689Z,23.60
2019-03-23T18:44:53.762Z,27.87
2019-03-23T18:47:23.680Z,25.47
2019-03-23T18:49:53.558Z,27.23
2019-03-23T18:52:23.747Z,30.87
2019-03-23T18:54:53.982Z,29.47
2019-03-23T18:57:23.876Z,30.90
2019-03-23T18:59:53.733Z,31.83
2019-03-23T19:02:23.935Z,31.83
2019-03-23T19:04:54.429Z,32.20
2019-03-23T19:07:24.733Z,32.13
2019-03-23T19:09:54.614Z,33.73
2019-03-23T19:12:24.730Z,32.77
2019-03-23T19:14:54.576Z,34.53
2019-03-23T19:17:25.465Z,34.30
2019-03-23T19:19:56.097Z,34.53
2019-03-23T19:22:27.126Z,37.50
2019-03-23T19:24:57.653Z,36.93
2019-03-23T19:27:28.193Z,36.70
2019-03-23T19:29:58.119Z,37.70
2019-03-23T19:32:29.101Z,37.87
2019-03-23T19:35:00.290Z,38.60
2019-03-23T19:37:30.693Z,39.10
2019-03-23T19:40:01.001Z,37.73
2019-03-23T19:42:30.863Z,38.13
2019-03-23T19:45:01.211Z,41.00
2019-03-23T19:47:31.593Z,35.57
2019-03-23T19:50:02.114Z,39.57
2019-03-23T19:52:33.635Z,41.67
2019-03-23T19:55:04.362Z,40.00
2019-03-23T19:57:34.743Z,41.80
2019-03-23T20:00:05.177Z,38.47
2019-03-23T20:02:35.542Z,40.37
2019-03-23T20:05:05.719Z,41.00
2019-03-23T20:07:35.882Z,40.40
2019-03-23T20:10:07.398Z,40.10
2019-03-23T20:12:37.351Z,41.10
2019-03-23T20:15:07.933Z,40.17
2019-03-23T20:17:38.613Z,38.10
2019-03-23T20:20:10.203Z,35.97
2019-03-23T20:22:40.453Z,41.57
2019-03-23T20:25:11.502Z,41.77
2019-03-23T20:27:41.439Z,44.37
2019-03-23T20:30:12.429Z,42.43
2019-03-23T20:32:42.921Z,42.43
2019-03-23T20:35:13.241Z,43.10
2019-03-23T20:37:44.389Z,41.80
2019-03-23T20:40:14.628Z,43.13
2019-03-23T20:42:44.892Z,45.87
2019-03-23T20:45:20.485Z,42.40
2019-03-23T20:47:51.419Z,42.47
2019-03-23T20:50:22.138Z,44.50
2019-03-23T20:52:52.335Z,43.87
2019-03-23T20:55:30.346Z,44.73
2019-03-23T20:58:00.981Z,43.07
2019-03-23T21:00:31.623Z,41.90
2019-03-23T21:03:02.558Z,43.13
2019-03-23T21:05:34.205Z,42.30
2019-03-23T21:08:04.940Z,40.93
2019-03-23T21:10:35.193Z,43.50
2019-03-23T21:13:06.285Z,43.93
2019-03-23T21:15:36.867Z,43.50
2019-03-23T21:18:06.782Z,43.77
2019-03-23T21:20:37.361Z,34.60
2019-03-23T21:23:08.205Z,40.10
2019-03-23T21:25:38.548Z,40.37
2019-03-23T21:28:08.433Z,33.50
2019-03-23T21:30:39.103Z,34.77
2019-03-23T21:33:09.582Z,36.20
2019-03-23T21:35:40.299Z,38.33
2019-03-23T21:38:10.999Z,32.93
2019-03-23T21:40:41.327Z,32.37
2019-03-23T21:43:11.984Z,42.03
2019-03-23T21:45:42.400Z,42.27
2019-03-23T21:48:13.587Z,37.83
2019-03-23T21:50:47.791Z,28.57
2019-03-23T21:53:16.663Z,48.90
2019-03-23T21:55:47.079Z,48.70
2019-03-23T21:58:17.931Z,45.50
2019-03-23T22:00:48.478Z,42.23
2019-03-23T22:03:19.501Z,45.70
2019-03-23T22:05:49.946Z,61.27
2019-03-23T22:08:20.961Z,57.20
2019-03-23T22:10:51.171Z,54.93
2019-03-23T22:13:22.484Z,46.67
2019-03-23T22:15:53.708Z,50.60
2019-03-23T22:18:24.029Z,55.03
2019-03-23T22:20:54.330Z,54.20
2019-03-23T22:23:25.217Z,51.07
2019-03-23T22:25:55.923Z,46.97
2019-03-23T22:28:25.845Z,51.23
2019-03-23T22:30:56.642Z,41.00
2019-03-23T22:33:27.892Z,49.60
2019-03-23T22:35:58.779Z,50.53
2019-03-23T22:38:29.317Z,52.13
2019-03-23T22:41:00.098Z,50.47
2019-03-23T22:43:30.353Z,60.47
2019-03-23T22:46:00.549Z,65.80
2019-03-23T22:48:31.445Z,54.30
2019-03-23T22:51:01.834Z,49.03
2019-03-23T22:53:32.952Z,50.17
2019-03-23T22:56:03.714Z,59.03
2019-03-23T22:58:34.082Z,47.33
2019-03-23T23:01:04.112Z,53.23
2019-03-23T23:03:34.810Z,45.83
2019-03-23T23:06:05.449Z,57.20
2019-03-23T23:08:36.081Z,56.13
2019-03-23T23:11:06.451Z,50.80
2019-03-23T23:13:37.017Z,46.20
2019-03-23T23:16:07.736Z,44.17
2019-03-23T23:18:38.369Z,40.70
2019-03-23T23:21:09.004Z,42.90
2019-03-23T23:23:39.333Z,35.43
2019-03-23T23:26:09.725Z,34.80
2019-03-23T23:28:40.214Z,32.60
2019-03-23T23:31:10.573Z,21.47
2019-03-23T23:33:40.933Z,33.67
2019-03-23T23:36:11.180Z,26.60
2019-03-23T23:38:41.724Z,29.37
2019-03-23T23:41:11.932Z,29.50
2019-03-23T23:43:42.774Z,30.30
2019-03-23T23:46:13.842Z,28.13
2019-03-23T23:48:51.296Z,22.37
2019-03-23T23:51:16.626Z,30.17
2019-03-23T23:53:46.850Z,29.00
2019-03-23T23:56:17.092Z,27.63
2019-03-23T23:58:47.008Z,27.30
